sensor_id;sensor_type;location;lat;lon;timestamp;P1;durP1;ratioP1;P2;durP2;ratioP2
39308;SDS011;26019;47.510;19.122;2022-12-29T00:05:18;31.63;;;16.58;;
39308;SDS011;26019;47.510;19.122;2022-12-29T00:15:21;28.92;;;15.40;;
39308;SDS011;26019;47.510;19.122;2022-12-29T00:25:44;31.70;;;16.15;;
39308;SDS011;26019;47.510;19.122;2022-12-29T00:36:06;27.60;;;14.98;;
39308;SDS011;26019;47.510;19.122;2022-12-29T00:46:28;33.15;;;18.23;;
39308;SDS011;26019;47.510;19.122;2022-12-29T01:06:36;37.30;;;18.23;;
39308;SDS011;26019;47.510;19.122;2022-12-29T01:16:39;27.85;;;16.00;;
39308;SDS011;26019;47.510;19.122;2022-12-29T01:26:41;27.88;;;15.75;;
39308;SDS011;26019;47.510;19.122;2022-12-29T01:36:43;38.65;;;18.10;;
39308;SDS011;26019;47.510;19.122;2022-12-29T01:46:45;35.33;;;19.15;;
39308;SDS011;26019;47.510;19.122;2022-12-29T01:56:52;30.75;;;18.35;;
39308;SDS011;26019;47.510;19.122;2022-12-29T02:07:06;32.90;;;18.35;;
39308;SDS011;26019;47.510;19.122;2022-12-29T02:48:31;32.05;;;16.90;;
39308;SDS011;26019;47.510;19.122;2022-12-29T02:58:34;37.60;;;18.50;;
39308;SDS011;26019;47.510;19.122;2022-12-29T03:08:50;35.20;;;19.55;;
39308;SDS011;26019;47.510;19.122;2022-12-29T03:19:02;36.90;;;20.73;;
39308;SDS011;26019;47.510;19.122;2022-12-29T03:39:19;35.27;;;20.33;;
39308;SDS011;26019;47.510;19.122;2022-12-29T03:49:28;42.72;;;22.17;;
39308;SDS011;26019;47.510;19.122;2022-12-29T03:59:30;38.95;;;23.10;;
39308;SDS011;26019;47.510;19.122;2022-12-29T04:09:33;38.55;;;21.10;;
39308;SDS011;26019;47.510;19.122;2022-12-29T04:19:38;39.30;;;21.35;;
39308;SDS011;26019;47.510;19.122;2022-12-29T04:29:41;39.97;;;22.48;;
39308;SDS011;26019;47.510;19.122;2022-12-29T04:39:43;40.80;;;22.15;;
39308;SDS011;26019;47.510;19.122;2022-12-29T04:49:45;46.13;;;24.08;;
39308;SDS011;26019;47.510;19.122;2022-12-29T04:59:47;40.97;;;21.92;;
39308;SDS011;26019;47.510;19.122;2022-12-29T05:09:55;46.03;;;25.33;;
39308;SDS011;26019;47.510;19.122;2022-12-29T05:19:57;38.75;;;22.70;;
39308;SDS011;26019;47.510;19.122;2022-12-29T05:29:59;41.53;;;23.38;;
39308;SDS011;26019;47.510;19.122;2022-12-29T05:40:01;43.15;;;22.77;;
39308;SDS011;26019;47.510;19.122;2022-12-29T05:50:03;40.97;;;23.05;;
39308;SDS011;26019;47.510;19.122;2022-12-29T06:00:05;44.28;;;23.92;;
39308;SDS011;26019;47.510;19.122;2022-12-29T06:10:08;51.38;;;27.83;;
39308;SDS011;26019;47.510;19.122;2022-12-29T06:30:18;48.17;;;27.80;;
39308;SDS011;26019;47.510;19.122;2022-12-29T06:40:29;49.13;;;27.83;;
39308;SDS011;26019;47.510;19.122;2022-12-29T06:50:33;50.58;;;27.00;;
39308;SDS011;26019;47.510;19.122;2022-12-29T07:00:34;48.78;;;26.90;;
39308;SDS011;26019;47.510;19.122;2022-12-29T07:10:36;49.10;;;27.00;;
39308;SDS011;26019;47.510;19.122;2022-12-29T07:20:38;52.17;;;26.98;;
39308;SDS011;26019;47.510;19.122;2022-12-29T07:30:41;47.87;;;26.60;;
39308;SDS011;26019;47.510;19.122;2022-12-29T07:40:43;45.72;;;26.48;;
39308;SDS011;26019;47.510;19.122;2022-12-29T08:00:54;45.20;;;25.10;;
39308;SDS011;26019;47.510;19.122;2022-12-29T08:10:57;42.67;;;23.98;;
39308;SDS011;26019;47.510;19.122;2022-12-29T08:21:02;45.85;;;24.30;;
39308;SDS011;26019;47.510;19.122;2022-12-29T08:31:07;46.30;;;24.42;;
39308;SDS011;26019;47.510;19.122;2022-12-29T08:41:08;45.47;;;25.58;;
39308;SDS011;26019;47.510;19.122;2022-12-29T08:51:10;49.25;;;27.80;;
39308;SDS011;26019;47.510;19.122;2022-12-29T09:01:13;46.30;;;24.80;;
39308;SDS011;26019;47.510;19.122;2022-12-29T09:11:19;42.03;;;26.40;;
39308;SDS011;26019;47.510;19.122;2022-12-29T09:21:23;50.42;;;26.48;;
39308;SDS011;26019;47.510;19.122;2022-12-29T09:31:28;42.93;;;25.80;;
39308;SDS011;26019;47.510;19.122;2022-12-29T09:41:57;42.88;;;25.30;;
39308;SDS011;26019;47.510;19.122;2022-12-29T09:52:04;49.40;;;28.15;;
39308;SDS011;26019;47.510;19.122;2022-12-29T10:33:01;48.15;;;28.45;;
39308;SDS011;26019;47.510;19.122;2022-12-29T10:53:30;46.80;;;27.65;;
39308;SDS011;26019;47.510;19.122;2022-12-29T11:04:02;49.42;;;29.85;;
39308;SDS011;26019;47.510;19.122;2022-12-29T11:14:28;38.13;;;26.20;;
39308;SDS011;26019;47.510;19.122;2022-12-29T11:24:34;37.45;;;25.05;;
39308;SDS011;26019;47.510;19.122;2022-12-29T11:44:48;32.88;;;22.90;;
39308;SDS011;26019;47.510;19.122;2022-12-29T11:54:53;36.83;;;24.70;;
39308;SDS011;26019;47.510;19.122;2022-12-29T12:04:59;32.63;;;24.48;;
39308;SDS011;26019;47.510;19.122;2022-12-29T12:15:46;35.80;;;24.58;;
39308;SDS011;26019;47.510;19.122;2022-12-29T12:25:59;39.35;;;26.65;;
39308;SDS011;26019;47.510;19.122;2022-12-29T12:36:15;38.13;;;25.63;;
39308;SDS011;26019;47.510;19.122;2022-12-29T13:07:27;34.85;;;22.42;;
39308;SDS011;26019;47.510;19.122;2022-12-29T13:17:43;34.97;;;21.73;;
39308;SDS011;26019;47.510;19.122;2022-12-29T13:39:26;36.08;;;23.27;;
39308;SDS011;26019;47.510;19.122;2022-12-29T13:49:17;40.20;;;23.75;;
39308;SDS011;26019;47.510;19.122;2022-12-29T13:59:33;35.70;;;22.65;;
39308;SDS011;26019;47.510;19.122;2022-12-29T14:19:51;39.67;;;23.20;;
39308;SDS011;26019;47.510;19.122;2022-12-29T14:29:56;43.90;;;26.58;;
39308;SDS011;26019;47.510;19.122;2022-12-29T14:50:22;41.28;;;26.10;;
39308;SDS011;26019;47.510;19.122;2022-12-29T15:00:31;41.70;;;26.73;;
39308;SDS011;26019;47.510;19.122;2022-12-29T15:10:45;47.42;;;26.42;;
39308;SDS011;26019;47.510;19.122;2022-12-29T15:20:55;51.10;;;31.17;;
39308;SDS011;26019;47.510;19.122;2022-12-29T15:31:03;57.85;;;31.77;;
39308;SDS011;26019;47.510;19.122;2022-12-29T15:51:34;60.60;;;35.30;;
39308;SDS011;26019;47.510;19.122;2022-12-29T16:01:39;67.90;;;35.97;;
39308;SDS011;26019;47.510;19.122;2022-12-29T16:11:51;68.90;;;38.47;;
39308;SDS011;26019;47.510;19.122;2022-12-29T16:21:56;70.18;;;37.50;;
39308;SDS011;26019;47.510;19.122;2022-12-29T16:32:02;71.50;;;37.17;;
39308;SDS011;26019;47.510;19.122;2022-12-29T16:42:45;80.22;;;40.33;;
39308;SDS011;26019;47.510;19.122;2022-12-29T16:52:52;76.00;;;38.05;;
39308;SDS011;26019;47.510;19.122;2022-12-29T17:02:55;92.22;;;49.08;;
39308;SDS011;26019;47.510;19.122;2022-12-29T17:12:59;97.00;;;49.00;;
39308;SDS011;26019;47.510;19.122;2022-12-29T17:23:01;87.15;;;46.08;;
39308;SDS011;26019;47.510;19.122;2022-12-29T17:33:05;91.82;;;47.17;;
39308;SDS011;26019;47.510;19.122;2022-12-29T17:43:13;86.40;;;45.90;;
39308;SDS011;26019;47.510;19.122;2022-12-29T17:53:23;89.37;;;46.40;;
39308;SDS011;26019;47.510;19.122;2022-12-29T18:03:35;89.97;;;47.20;;
39308;SDS011;26019;47.510;19.122;2022-12-29T18:13:39;81.88;;;45.33;;
39308;SDS011;26019;47.510;19.122;2022-12-29T18:23:47;87.07;;;46.35;;
39308;SDS011;26019;47.510;19.122;2022-12-29T18:33:50;86.45;;;46.65;;
39308;SDS011;26019;47.510;19.122;2022-12-29T18:43:53;83.13;;;44.07;;
39308;SDS011;26019;47.510;19.122;2022-12-29T18:53:56;90.55;;;45.90;;
39308;SDS011;26019;47.510;19.122;2022-12-29T19:13:58;91.50;;;48.08;;
39308;SDS011;26019;47.510;19.122;2022-12-29T19:23:59;92.30;;;48.92;;
39308;SDS011;26019;47.510;19.122;2022-12-29T19:34:01;89.35;;;49.55;;
39308;SDS011;26019;47.510;19.122;2022-12-29T19:44:03;93.22;;;48.40;;
39308;SDS011;26019;47.510;19.122;2022-12-29T19:54:05;90.75;;;48.45;;
39308;SDS011;26019;47.510;19.122;2022-12-29T20:04:10;90.55;;;48.58;;
39308;SDS011;26019;47.510;19.122;2022-12-29T20:24:15;87.97;;;47.70;;
39308;SDS011;26019;47.510;19.122;2022-12-29T20:34:17;86.85;;;46.38;;
39308;SDS011;26019;47.510;19.122;2022-12-29T20:44:20;96.63;;;50.10;;
39308;SDS011;26019;47.510;19.122;2022-12-29T20:54:24;86.27;;;49.53;;
39308;SDS011;26019;47.510;19.122;2022-12-29T21:04:27;99.05;;;50.45;;
39308;SDS011;26019;47.510;19.122;2022-12-29T21:14:49;104.72;;;56.03;;
39308;SDS011;26019;47.510;19.122;2022-12-29T21:24:50;100.60;;;54.17;;
39308;SDS011;26019;47.510;19.122;2022-12-29T21:34:52;93.50;;;50.80;;
39308;SDS011;26019;47.510;19.122;2022-12-29T21:44:54;100.03;;;52.58;;
39308;SDS011;26019;47.510;19.122;2022-12-29T21:55:20;97.22;;;55.10;;
39308;SDS011;26019;47.510;19.122;2022-12-29T22:05:22;101.28;;;56.13;;
39308;SDS011;26019;47.510;19.122;2022-12-29T22:15:43;101.78;;;54.67;;
39308;SDS011;26019;47.510;19.122;2022-12-29T22:25:46;101.82;;;52.53;;
39308;SDS011;26019;47.510;19.122;2022-12-29T22:35:49;91.57;;;52.03;;
39308;SDS011;26019;47.510;19.122;2022-12-29T22:45:51;94.18;;;50.80;;
39308;SDS011;26019;47.510;19.122;2022-12-29T22:56:03;92.35;;;49.10;;
39308;SDS011;26019;47.510;19.122;2022-12-29T23:06:07;97.23;;;54.40;;
39308;SDS011;26019;47.510;19.122;2022-12-29T23:16:11;92.20;;;51.25;;
39308;SDS011;26019;47.510;19.122;2022-12-29T23:26:16;87.13;;;49.17;;
39308;SDS011;26019;47.510;19.122;2022-12-29T23:46:22;78.13;;;43.08;;
39308;SDS011;26019;47.510;19.122;2022-12-29T23:56:26;78.50;;;43.85;;
